ABF1 ENTC-ENHV
Flight info
| Callsign | ABF1 |
|---|---|
| Flight time | 0h 40m |
| Altitude | 31000 |
| Route | LITPI DCT HLN |
| Aircraft | C25C/M-SDE2E3FGHRWXY/LB1 |
Departure
| Time | 2026-04-29 07:09 |
|---|---|
| Airport | Tromsø Airport (ENTC) |
Arrival
| Time | 2026-04-29 07:50 |
|---|---|
| Airport | Honningsvåg Airport, Valan (ENHV) |
| Time | Latitude | Longitude | Altitude | Speed | Heading |
|---|---|---|---|---|---|
| 2026-04-29 06:49 | 69.68088 | 18.90979 | 30 ft | 0 kts | 283° |
| 2026-04-29 07:02 | 69.68072 | 18.90958 | 30 ft | 6 kts | 142° |
| 2026-04-29 07:02 | 69.68071 | 18.91069 | 30 ft | 7 kts | 85° |
| 2026-04-29 07:03 | 69.68079 | 18.91283 | 26 ft | 12 kts | 66° |
| 2026-04-29 07:03 | 69.68160 | 18.91390 | 24 ft | 15 kts | 12° |
| 2026-04-29 07:03 | 69.68267 | 18.91461 | 21 ft | 15 kts | 13° |
| 2026-04-29 07:03 | 69.68373 | 18.91498 | 20 ft | 16 kts | 359° |
| 2026-04-29 07:04 | 69.68494 | 18.91518 | 19 ft | 18 kts | 13° |
| 2026-04-29 07:04 | 69.68619 | 18.91614 | 19 ft | 19 kts | 13° |
| 2026-04-29 07:04 | 69.68732 | 18.91688 | 14 ft | 12 kts | 14° |
| 2026-04-29 07:04 | 69.68781 | 18.91805 | 13 ft | 8 kts | 102° |
| 2026-04-29 07:05 | 69.68776 | 18.91859 | 13 ft | 0 kts | 103° |
| 2026-04-29 07:08 | 69.68763 | 18.92007 | 14 ft | 11 kts | 103° |
| 2026-04-29 07:08 | 69.68746 | 18.92160 | 14 ft | 4 kts | 148° |
| 2026-04-29 07:08 | 69.68739 | 18.92161 | 14 ft | 1 kts | 196° |
| 2026-04-29 07:09 | 69.68737 | 18.92160 | 14 ft | 0 kts | 198° |
| 2026-04-29 07:09 | 69.68452 | 18.91962 | 24 ft | 98 kts | 192° |
| 2026-04-29 07:09 | 69.67614 | 18.91347 | 597 ft | 140 kts | 194° |
| 2026-04-29 07:09 | 69.66557 | 18.90553 | 1557 ft | 171 kts | 194° |
| 2026-04-29 07:10 | 69.65309 | 18.89828 | 2776 ft | 190 kts | 189° |
| 2026-04-29 07:10 | 69.63927 | 18.88987 | 3940 ft | 214 kts | 194° |
| 2026-04-29 07:10 | 69.62382 | 18.87954 | 4934 ft | 242 kts | 194° |
| 2026-04-29 07:10 | 69.60661 | 18.86784 | 6165 ft | 260 kts | 195° |
| 2026-04-29 07:11 | 69.58872 | 18.85624 | 7562 ft | 267 kts | 195° |
| 2026-04-29 07:11 | 69.56989 | 18.85200 | 8841 ft | 281 kts | 171° |
| 2026-04-29 07:11 | 69.55106 | 18.87038 | 10147 ft | 290 kts | 165° |
| 2026-04-29 07:11 | 69.53113 | 18.88336 | 11043 ft | 310 kts | 169° |
| 2026-04-29 07:12 | 69.51120 | 18.91229 | 11570 ft | 342 kts | 138° |
| 2026-04-29 07:12 | 69.49752 | 18.97062 | 11984 ft | 370 kts | 111° |
| 2026-04-29 07:12 | 69.49412 | 19.04449 | 12783 ft | 368 kts | 81° |
| 2026-04-29 07:12 | 69.50220 | 19.11107 | 13975 ft | 352 kts | 58° |
| 2026-04-29 07:13 | 69.51580 | 19.16882 | 14632 ft | 350 kts | 50° |
| 2026-04-29 07:13 | 69.53056 | 19.22384 | 15313 ft | 349 kts | 49° |
| 2026-04-29 07:13 | 69.54436 | 19.28090 | 16007 ft | 350 kts | 54° |
| 2026-04-29 07:13 | 69.55613 | 19.34077 | 16709 ft | 350 kts | 57° |
| 2026-04-29 07:14 | 69.56819 | 19.40097 | 17459 ft | 347 kts | 54° |
| 2026-04-29 07:14 | 69.58076 | 19.45988 | 18249 ft | 347 kts | 54° |
| 2026-04-29 07:14 | 69.59328 | 19.51886 | 18993 ft | 346 kts | 53° |
| 2026-04-29 07:14 | 69.60561 | 19.57794 | 19700 ft | 345 kts | 54° |
| 2026-04-29 07:15 | 69.61779 | 19.63695 | 20449 ft | 343 kts | 53° |
| 2026-04-29 07:15 | 69.62999 | 19.69567 | 21292 ft | 342 kts | 53° |
| 2026-04-29 07:15 | 69.64214 | 19.75424 | 22101 ft | 340 kts | 53° |
| 2026-04-29 07:15 | 69.65418 | 19.81272 | 22898 ft | 340 kts | 53° |
| 2026-04-29 07:16 | 69.66623 | 19.87103 | 23707 ft | 339 kts | 52° |
| 2026-04-29 07:16 | 69.67814 | 19.92928 | 24373 ft | 338 kts | 52° |
| 2026-04-29 07:16 | 69.69035 | 19.98657 | 25033 ft | 332 kts | 46° |
| 2026-04-29 07:16 | 69.70666 | 20.03080 | 25651 ft | 318 kts | 30° |
| 2026-04-29 07:17 | 69.72402 | 20.07034 | 26293 ft | 317 kts | 31° |
| 2026-04-29 07:17 | 69.74147 | 20.10873 | 26943 ft | 314 kts | 30° |
| 2026-04-29 07:17 | 69.75893 | 20.14700 | 27521 ft | 315 kts | 31° |
| 2026-04-29 07:17 | 69.77626 | 20.18567 | 28135 ft | 315 kts | 30° |
| 2026-04-29 07:18 | 69.79351 | 20.22441 | 28762 ft | 313 kts | 30° |
| 2026-04-29 07:18 | 69.81071 | 20.26300 | 29353 ft | 312 kts | 30° |
| 2026-04-29 07:18 | 69.82784 | 20.30145 | 29941 ft | 311 kts | 30° |
| 2026-04-29 07:18 | 69.84494 | 20.33984 | 30497 ft | 310 kts | 30° |
| 2026-04-29 07:19 | 69.85620 | 20.36529 | 30766 ft | 310 kts | 30° |
| 2026-04-29 07:19 | 69.87324 | 20.40367 | 31154 ft | 311 kts | 30° |
| 2026-04-29 07:19 | 69.89058 | 20.44285 | 31262 ft | 321 kts | 30° |
| 2026-04-29 07:19 | 69.90857 | 20.48348 | 31287 ft | 334 kts | 31° |
| 2026-04-29 07:20 | 69.92715 | 20.52574 | 31296 ft | 344 kts | 31° |
| 2026-04-29 07:20 | 69.96590 | 20.61422 | 31299 ft | 363 kts | 31° |
| 2026-04-29 07:21 | 70.00635 | 20.70695 | 31249 ft | 376 kts | 31° |
| 2026-04-29 07:21 | 70.04804 | 20.80301 | 31262 ft | 386 kts | 32° |
| 2026-04-29 07:22 | 70.09046 | 20.90138 | 31268 ft | 391 kts | 32° |
| 2026-04-29 07:22 | 70.13330 | 21.00108 | 31285 ft | 395 kts | 32° |
| 2026-04-29 07:23 | 70.17402 | 21.11190 | 31288 ft | 405 kts | 42° |
| 2026-04-29 07:23 | 70.20697 | 21.24945 | 31290 ft | 413 kts | 50° |
| 2026-04-29 07:24 | 70.23866 | 21.39182 | 31289 ft | 416 kts | 51° |
| 2026-04-29 07:24 | 70.27022 | 21.53509 | 31289 ft | 417 kts | 51° |
| 2026-04-29 07:25 | 70.30181 | 21.67938 | 31287 ft | 418 kts | 51° |
| 2026-04-29 07:25 | 70.33332 | 21.82438 | 31243 ft | 419 kts | 52° |
| 2026-04-29 07:26 | 70.36477 | 21.96988 | 31231 ft | 419 kts | 51° |
| 2026-04-29 07:26 | 70.39608 | 22.11599 | 31221 ft | 418 kts | 51° |
| 2026-04-29 07:27 | 70.42744 | 22.26288 | 30756 ft | 428 kts | 52° |
| 2026-04-29 07:27 | 70.44361 | 22.33888 | 30173 ft | 437 kts | 52° |
| 2026-04-29 07:27 | 70.45950 | 22.41468 | 29578 ft | 425 kts | 52° |
| 2026-04-29 07:27 | 70.47517 | 22.48902 | 29025 ft | 422 kts | 52° |
| 2026-04-29 07:28 | 70.49076 | 22.56325 | 28530 ft | 421 kts | 52° |
| 2026-04-29 07:28 | 70.50607 | 22.63626 | 27991 ft | 420 kts | 52° |
| 2026-04-29 07:28 | 70.52149 | 22.71051 | 27441 ft | 420 kts | 53° |
| 2026-04-29 07:28 | 70.53689 | 22.78477 | 26882 ft | 419 kts | 53° |
| 2026-04-29 07:29 | 70.55228 | 22.85896 | 26337 ft | 418 kts | 53° |
| 2026-04-29 07:29 | 70.56755 | 22.93340 | 25782 ft | 418 kts | 53° |
| 2026-04-29 07:29 | 70.58284 | 23.00761 | 25232 ft | 418 kts | 54° |
| 2026-04-29 07:29 | 70.59808 | 23.08205 | 24676 ft | 417 kts | 54° |
| 2026-04-29 07:30 | 70.61308 | 23.15582 | 24138 ft | 410 kts | 54° |
| 2026-04-29 07:30 | 70.62786 | 23.22861 | 23567 ft | 405 kts | 54° |
| 2026-04-29 07:30 | 70.64245 | 23.30050 | 23027 ft | 400 kts | 54° |
| 2026-04-29 07:31 | 70.67107 | 23.44245 | 21876 ft | 393 kts | 55° |
| 2026-04-29 07:31 | 70.68517 | 23.51282 | 21358 ft | 391 kts | 54° |
| 2026-04-29 07:31 | 70.69921 | 23.58299 | 20854 ft | 390 kts | 55° |
| 2026-04-29 07:31 | 70.71315 | 23.65303 | 20330 ft | 387 kts | 55° |
| 2026-04-29 07:32 | 70.72695 | 23.72236 | 19819 ft | 382 kts | 55° |
| 2026-04-29 07:32 | 70.74047 | 23.79085 | 19334 ft | 377 kts | 55° |
| 2026-04-29 07:32 | 70.75386 | 23.85862 | 18832 ft | 372 kts | 56° |
| 2026-04-29 07:32 | 70.76702 | 23.92556 | 18332 ft | 368 kts | 56° |
| 2026-04-29 07:33 | 70.78001 | 23.99170 | 17843 ft | 363 kts | 56° |
| 2026-04-29 07:33 | 70.79277 | 24.05723 | 17377 ft | 358 kts | 56° |
| 2026-04-29 07:33 | 70.80541 | 24.12184 | 16920 ft | 354 kts | 56° |
| 2026-04-29 07:33 | 70.81783 | 24.18607 | 16461 ft | 351 kts | 56° |
| 2026-04-29 07:34 | 70.83021 | 24.24968 | 16010 ft | 348 kts | 56° |
| 2026-04-29 07:34 | 70.84240 | 24.31315 | 15565 ft | 346 kts | 56° |
| 2026-04-29 07:34 | 70.85434 | 24.37501 | 15323 ft | 333 kts | 57° |
| 2026-04-29 07:34 | 70.86605 | 24.43614 | 14749 ft | 333 kts | 57° |
| 2026-04-29 07:35 | 70.87770 | 24.49672 | 14159 ft | 330 kts | 57° |
| 2026-04-29 07:35 | 70.88915 | 24.55718 | 13472 ft | 328 kts | 57° |
| 2026-04-29 07:35 | 70.90051 | 24.61650 | 13047 ft | 320 kts | 57° |
| 2026-04-29 07:35 | 70.91150 | 24.67485 | 12624 ft | 315 kts | 57° |
| 2026-04-29 07:36 | 70.92246 | 24.73224 | 12215 ft | 311 kts | 57° |
| 2026-04-29 07:36 | 70.93315 | 24.78930 | 11807 ft | 308 kts | 57° |
| 2026-04-29 07:36 | 70.94386 | 24.84583 | 11399 ft | 306 kts | 57° |
| 2026-04-29 07:36 | 70.95441 | 24.90240 | 10997 ft | 305 kts | 58° |
| 2026-04-29 07:37 | 70.96500 | 24.95855 | 10594 ft | 304 kts | 58° |
| 2026-04-29 07:37 | 70.97544 | 25.01494 | 10187 ft | 303 kts | 58° |
| 2026-04-29 07:37 | 70.98575 | 25.06991 | 9633 ft | 301 kts | 58° |
| 2026-04-29 07:37 | 70.99603 | 25.12573 | 9160 ft | 292 kts | 58° |
| 2026-04-29 07:38 | 71.00594 | 25.17877 | 8775 ft | 283 kts | 58° |
| 2026-04-29 07:38 | 71.01547 | 25.23081 | 8403 ft | 276 kts | 59° |
| 2026-04-29 07:38 | 71.02491 | 25.28160 | 8045 ft | 272 kts | 58° |
| 2026-04-29 07:38 | 71.03411 | 25.33192 | 7685 ft | 268 kts | 59° |
| 2026-04-29 07:39 | 71.04312 | 25.38074 | 7337 ft | 264 kts | 59° |
| 2026-04-29 07:39 | 71.05203 | 25.42976 | 6991 ft | 261 kts | 59° |
| 2026-04-29 07:39 | 71.06094 | 25.47830 | 6646 ft | 260 kts | 59° |
| 2026-04-29 07:39 | 71.06931 | 25.52442 | 6310 ft | 258 kts | 59° |
| 2026-04-29 07:40 | 71.07255 | 25.54214 | 6173 ft | 257 kts | 59° |
| 2026-04-29 07:40 | 71.07499 | 25.55547 | 6086 ft | 257 kts | 59° |
| 2026-04-29 07:40 | 71.08364 | 25.60340 | 5742 ft | 255 kts | 59° |
| 2026-04-29 07:40 | 71.09233 | 25.65111 | 5407 ft | 255 kts | 59° |
| 2026-04-29 07:41 | 71.10090 | 25.69864 | 5059 ft | 252 kts | 60° |
| 2026-04-29 07:41 | 71.10932 | 25.74555 | 4729 ft | 247 kts | 59° |
| 2026-04-29 07:41 | 71.11756 | 25.79097 | 4403 ft | 238 kts | 60° |
| 2026-04-29 07:41 | 71.12532 | 25.83473 | 4097 ft | 227 kts | 60° |
| 2026-04-29 07:42 | 71.13283 | 25.87666 | 3799 ft | 220 kts | 63° |
| 2026-04-29 07:42 | 71.13470 | 25.92140 | 3526 ft | 205 kts | 98° |
| 2026-04-29 07:42 | 71.13241 | 25.96314 | 3277 ft | 191 kts | 97° |
| 2026-04-29 07:42 | 71.13012 | 26.00245 | 3029 ft | 182 kts | 101° |
| 2026-04-29 07:43 | 71.12728 | 26.03988 | 2780 ft | 177 kts | 113° |
| 2026-04-29 07:43 | 71.11952 | 26.06868 | 2542 ft | 175 kts | 140° |
| 2026-04-29 07:43 | 71.10885 | 26.08326 | 2501 ft | 164 kts | 169° |
| 2026-04-29 07:43 | 71.09758 | 26.08251 | 2504 ft | 163 kts | 192° |
| 2026-04-29 07:44 | 71.08669 | 26.07617 | 2508 ft | 154 kts | 188° |
| 2026-04-29 07:44 | 71.07620 | 26.07074 | 2373 ft | 152 kts | 190° |
| 2026-04-29 07:44 | 71.06667 | 26.06488 | 2185 ft | 136 kts | 192° |
| 2026-04-29 07:44 | 71.05759 | 26.05970 | 1920 ft | 130 kts | 188° |
| 2026-04-29 07:45 | 71.04862 | 26.05695 | 1619 ft | 128 kts | 184° |
| 2026-04-29 07:45 | 71.03970 | 26.05594 | 1284 ft | 130 kts | 180° |
| 2026-04-29 07:45 | 71.03075 | 26.05781 | 989 ft | 128 kts | 175° |
| 2026-04-29 07:45 | 71.02199 | 26.05690 | 785 ft | 124 kts | 192° |
| 2026-04-29 07:46 | 71.01430 | 26.04590 | 585 ft | 120 kts | 223° |
| 2026-04-29 07:46 | 71.01040 | 26.02440 | 420 ft | 118 kts | 256° |
| 2026-04-29 07:46 | 71.00968 | 25.99892 | 120 ft | 121 kts | 269° |
| 2026-04-29 07:46 | 71.00971 | 25.97575 | 30 ft | 101 kts | 268° |
| 2026-04-29 07:47 | 71.01008 | 25.95050 | 341 ft | 117 kts | 276° |
| 2026-04-29 07:47 | 71.01387 | 25.92991 | 518 ft | 117 kts | 324° |
| 2026-04-29 07:47 | 71.02172 | 25.92985 | 695 ft | 124 kts | 35° |
| 2026-04-29 07:47 | 71.02512 | 25.95405 | 654 ft | 129 kts | 78° |
| 2026-04-29 07:48 | 71.02613 | 25.98115 | 646 ft | 129 kts | 84° |
| 2026-04-29 07:48 | 71.02646 | 26.00850 | 681 ft | 128 kts | 87° |
| 2026-04-29 07:48 | 71.02616 | 26.03506 | 701 ft | 123 kts | 94° |
| 2026-04-29 07:48 | 71.02239 | 26.05802 | 699 ft | 124 kts | 141° |
| 2026-04-29 07:49 | 71.01432 | 26.06077 | 561 ft | 123 kts | 208° |
| 2026-04-29 07:49 | 71.01034 | 26.03937 | 416 ft | 118 kts | 258° |
| 2026-04-29 07:49 | 71.00962 | 26.01494 | 223 ft | 112 kts | 268° |
| 2026-04-29 07:49 | 71.00969 | 25.99214 | 49 ft | 100 kts | 269° |
| 2026-04-29 07:50 | 71.00969 | 25.97713 | 29 ft | 31 kts | 270° |
| 2026-04-29 07:50 | 71.00980 | 25.97391 | 27 ft | 8 kts | 294° |
| 2026-04-29 07:50 | 71.00963 | 25.97373 | 27 ft | 9 kts | 90° |
| 2026-04-29 07:50 | 71.00968 | 25.97577 | 29 ft | 9 kts | 87° |
| 2026-04-29 07:51 | 71.00969 | 25.97788 | 28 ft | 9 kts | 101° |
| 2026-04-29 07:51 | 71.00922 | 25.97820 | 29 ft | 5 kts | 180° |
| 2026-04-29 07:51 | 71.00903 | 25.97820 | 30 ft | 1 kts | 181° |
| 2026-04-29 07:51 | 71.00896 | 25.97819 | 30 ft | 1 kts | 181° |